Union Grove, Wisconsin
Current Conditions -  °F | °C
As of 9:53 AM on Sunday 23 Nov 2014 (Local Time) from KENW Reporting Station
Haze Haze  
Wind Chill: 45°   Ceiling: 3500
Heat Index: 49°   Visibility: 6mi
Dew Point: 46°   Wind: 10mph
Humidity: 90%   Direction: 190°S
Pressure: 29.69"   Gusts: NA
Location:  42.69°N, 88.05°W
Report Text: KENW 231553Z 19009KT 6SM BR OVC035 09/08 A2969 RMK AO2 RAE1454B26E52 SLP057 P0001 T00940078
Loading
Personal Weather Stations






























Interactive Weather Map New forecast layout! Learn more

10-Day Weather Forecast

Advertisements
Track Severe Weather on mobile